GLO1123 SBFI-SBSP
Flight info
| Callsign | GLO1123 |
|---|---|
| Flight time | 1h 13m |
| Altitude | 37000 |
| Route | KAMIL UM548 DOSMU DCT ANISE |
| Aircraft | B738/M-SDE2E3FGHIRWXY/LB1 |
Departure
| Time | 2026-04-21 12:41 |
|---|---|
| Airport | Cataratas International Airport (SBFI) |
Arrival
| Time | 2026-04-21 13:55 |
|---|---|
| Airport | Congonhas–Deputado Freitas Nobre Airport (SBSP) |
| Time | Latitude | Longitude | Altitude | Speed | Heading |
|---|---|---|---|---|---|
| 2026-04-21 12:31 | -25.59665 | -54.48881 | 797 ft | 0 kts | 221° |
| 2026-04-21 12:33 | -25.59652 | -54.48866 | 797 ft | 4 kts | 237° |
| 2026-04-21 12:33 | -25.59643 | -54.48840 | 797 ft | 4 kts | 275° |
| 2026-04-21 12:34 | -25.59649 | -54.48819 | 797 ft | 1 kts | 311° |
| 2026-04-21 12:34 | -25.59652 | -54.48815 | 797 ft | 0 kts | 311° |
| 2026-04-21 12:36 | -25.59647 | -54.48822 | 797 ft | 3 kts | 311° |
| 2026-04-21 12:36 | -25.59620 | -54.48856 | 797 ft | 9 kts | 311° |
| 2026-04-21 12:36 | -25.59571 | -54.48919 | 798 ft | 12 kts | 311° |
| 2026-04-21 12:37 | -25.59514 | -54.48991 | 798 ft | 12 kts | 310° |
| 2026-04-21 12:37 | -25.59454 | -54.49052 | 798 ft | 12 kts | 351° |
| 2026-04-21 12:37 | -25.59380 | -54.49018 | 799 ft | 12 kts | 359° |
| 2026-04-21 12:37 | -25.59318 | -54.49070 | 798 ft | 11 kts | 310° |
| 2026-04-21 12:38 | -25.59266 | -54.49136 | 799 ft | 11 kts | 310° |
| 2026-04-21 12:38 | -25.59216 | -54.49200 | 798 ft | 11 kts | 311° |
| 2026-04-21 12:38 | -25.59159 | -54.49273 | 795 ft | 14 kts | 311° |
| 2026-04-21 12:38 | -25.59084 | -54.49369 | 795 ft | 18 kts | 311° |
| 2026-04-21 12:39 | -25.59002 | -54.49472 | 795 ft | 17 kts | 317° |
| 2026-04-21 12:39 | -25.58933 | -54.49516 | 795 ft | 9 kts | 299° |
| 2026-04-21 12:39 | -25.58949 | -54.49539 | 795 ft | 4 kts | 161° |
| 2026-04-21 12:39 | -25.58957 | -54.49532 | 795 ft | 0 kts | 135° |
| 2026-04-21 12:40 | -25.59016 | -54.49458 | 796 ft | 43 kts | 131° |
| 2026-04-21 12:41 | -25.59374 | -54.48998 | 799 ft | 112 kts | 130° |
| 2026-04-21 12:41 | -25.60014 | -54.48174 | 835 ft | 164 kts | 129° |
| 2026-04-21 12:41 | -25.60788 | -54.47190 | 1465 ft | 173 kts | 130° |
| 2026-04-21 12:41 | -25.61592 | -54.46164 | 2261 ft | 180 kts | 127° |
| 2026-04-21 12:42 | -25.62436 | -54.45066 | 2883 ft | 202 kts | 126° |
| 2026-04-21 12:42 | -25.63426 | -54.43781 | 3271 ft | 230 kts | 127° |
| 2026-04-21 12:42 | -25.64481 | -54.42403 | 3798 ft | 237 kts | 129° |
| 2026-04-21 12:42 | -25.65575 | -54.41020 | 4366 ft | 240 kts | 128° |
| 2026-04-21 12:43 | -25.66443 | -54.39384 | 4665 ft | 258 kts | 97° |
| 2026-04-21 12:43 | -25.66398 | -54.37363 | 5019 ft | 269 kts | 79° |
| 2026-04-21 12:43 | -25.66125 | -54.35279 | 5672 ft | 275 kts | 78° |
| 2026-04-21 12:43 | -25.65840 | -54.33175 | 6457 ft | 276 kts | 78° |
| 2026-04-21 12:44 | -25.65547 | -54.31055 | 7149 ft | 282 kts | 78° |
| 2026-04-21 12:44 | -25.65259 | -54.28899 | 7878 ft | 284 kts | 79° |
| 2026-04-21 12:44 | -25.64978 | -54.26713 | 8542 ft | 289 kts | 79° |
| 2026-04-21 12:44 | -25.64694 | -54.24482 | 9205 ft | 295 kts | 80° |
| 2026-04-21 12:45 | -25.64505 | -54.22983 | 9688 ft | 298 kts | 80° |
| 2026-04-21 12:45 | -25.64220 | -54.20698 | 10332 ft | 302 kts | 80° |
| 2026-04-21 12:45 | -25.63831 | -54.17588 | 11198 ft | 307 kts | 80° |
| 2026-04-21 12:45 | -25.63638 | -54.16030 | 11644 ft | 309 kts | 80° |
| 2026-04-21 12:46 | -25.63343 | -54.13662 | 12312 ft | 312 kts | 80° |
| 2026-04-21 12:46 | -25.63045 | -54.11261 | 12995 ft | 316 kts | 80° |
| 2026-04-21 12:46 | -25.62743 | -54.08836 | 13710 ft | 319 kts | 80° |
| 2026-04-21 12:46 | -25.62438 | -54.06390 | 14359 ft | 323 kts | 81° |
| 2026-04-21 12:47 | -25.62130 | -54.03915 | 15020 ft | 326 kts | 81° |
| 2026-04-21 12:47 | -25.61818 | -54.01422 | 15695 ft | 328 kts | 81° |
| 2026-04-21 12:47 | -25.61504 | -53.98904 | 16355 ft | 331 kts | 81° |
| 2026-04-21 12:47 | -25.61187 | -53.96367 | 17044 ft | 334 kts | 81° |
| 2026-04-21 12:48 | -25.60867 | -53.93811 | 17713 ft | 336 kts | 81° |
| 2026-04-21 12:48 | -25.60544 | -53.91231 | 18349 ft | 340 kts | 81° |
| 2026-04-21 12:48 | -25.60217 | -53.88621 | 18901 ft | 344 kts | 81° |
| 2026-04-21 12:48 | -25.59884 | -53.85983 | 19417 ft | 349 kts | 81° |
| 2026-04-21 12:49 | -25.59546 | -53.83303 | 19952 ft | 353 kts | 82° |
| 2026-04-21 12:49 | -25.59204 | -53.80588 | 20418 ft | 360 kts | 82° |
| 2026-04-21 12:49 | -25.58855 | -53.77826 | 20959 ft | 363 kts | 82° |
| 2026-04-21 12:49 | -25.58585 | -53.75073 | 21492 ft | 366 kts | 87° |
| 2026-04-21 12:50 | -25.58547 | -53.72237 | 22014 ft | 370 kts | 91° |
| 2026-04-21 12:50 | -25.58600 | -53.69374 | 22506 ft | 374 kts | 91° |
| 2026-04-21 12:50 | -25.58673 | -53.66472 | 22999 ft | 379 kts | 91° |
| 2026-04-21 12:50 | -25.58738 | -53.63534 | 23497 ft | 383 kts | 91° |
| 2026-04-21 12:51 | -25.58789 | -53.60570 | 23925 ft | 387 kts | 91° |
| 2026-04-21 12:51 | -25.58827 | -53.57580 | 24352 ft | 390 kts | 91° |
| 2026-04-21 12:51 | -25.58856 | -53.54570 | 24799 ft | 392 kts | 91° |
| 2026-04-21 12:51 | -25.58879 | -53.51545 | 25213 ft | 394 kts | 91° |
| 2026-04-21 12:52 | -25.58899 | -53.48501 | 25557 ft | 397 kts | 91° |
| 2026-04-21 12:52 | -25.58918 | -53.45423 | 25875 ft | 401 kts | 91° |
| 2026-04-21 12:52 | -25.58936 | -53.42319 | 26226 ft | 404 kts | 91° |
| 2026-04-21 12:52 | -25.58953 | -53.39195 | 26585 ft | 407 kts | 91° |
| 2026-04-21 12:53 | -25.58969 | -53.36051 | 26928 ft | 410 kts | 91° |
| 2026-04-21 12:53 | -25.58985 | -53.32883 | 27270 ft | 413 kts | 91° |
| 2026-04-21 12:53 | -25.59000 | -53.29690 | 27603 ft | 416 kts | 91° |
| 2026-04-21 12:53 | -25.59015 | -53.26483 | 27938 ft | 418 kts | 91° |
| 2026-04-21 12:54 | -25.59030 | -53.23248 | 28262 ft | 421 kts | 91° |
| 2026-04-21 12:54 | -25.59047 | -53.20044 | 28600 ft | 422 kts | 91° |
| 2026-04-21 12:54 | -25.59056 | -53.16786 | 28864 ft | 425 kts | 91° |
| 2026-04-21 12:54 | -25.59080 | -53.13491 | 29137 ft | 430 kts | 90° |
| 2026-04-21 12:55 | -25.59085 | -53.10174 | 29533 ft | 430 kts | 90° |
| 2026-04-21 12:55 | -25.59084 | -53.06859 | 29882 ft | 432 kts | 91° |
| 2026-04-21 12:55 | -25.59085 | -53.03528 | 30099 ft | 434 kts | 90° |
| 2026-04-21 12:55 | -25.59089 | -53.00163 | 30265 ft | 440 kts | 91° |
| 2026-04-21 12:56 | -25.59098 | -52.96777 | 30641 ft | 440 kts | 90° |
| 2026-04-21 12:56 | -25.59094 | -52.93392 | 31049 ft | 438 kts | 91° |
| 2026-04-21 12:56 | -25.59116 | -52.90009 | 31108 ft | 444 kts | 92° |
| 2026-04-21 12:56 | -25.59168 | -52.86565 | 31216 ft | 449 kts | 91° |
| 2026-04-21 12:57 | -25.59173 | -52.83110 | 31419 ft | 450 kts | 90° |
| 2026-04-21 12:57 | -25.59150 | -52.79643 | 31634 ft | 452 kts | 91° |
| 2026-04-21 12:57 | -25.59150 | -52.76145 | 31896 ft | 454 kts | 91° |
| 2026-04-21 12:57 | -25.59154 | -52.72650 | 32211 ft | 453 kts | 91° |
| 2026-04-21 12:58 | -25.59116 | -52.69148 | 32458 ft | 456 kts | 90° |
| 2026-04-21 12:58 | -25.59091 | -52.65621 | 32732 ft | 458 kts | 92° |
| 2026-04-21 12:58 | -25.59115 | -52.62138 | 33006 ft | 459 kts | 92° |
| 2026-04-21 12:58 | -25.59131 | -52.58594 | 33247 ft | 459 kts | 92° |
| 2026-04-21 12:59 | -25.59131 | -52.55049 | 33367 ft | 463 kts | 91° |
| 2026-04-21 12:59 | -25.59109 | -52.51476 | 33527 ft | 464 kts | 91° |
| 2026-04-21 12:59 | -25.59099 | -52.47900 | 33774 ft | 464 kts | 92° |
| 2026-04-21 12:59 | -25.59097 | -52.44328 | 33979 ft | 464 kts | 92° |
| 2026-04-21 13:00 | -25.59085 | -52.40740 | 34075 ft | 468 kts | 92° |
| 2026-04-21 13:00 | -25.59079 | -52.37115 | 34239 ft | 470 kts | 92° |
| 2026-04-21 13:00 | -25.59075 | -52.33489 | 34450 ft | 473 kts | 92° |
| 2026-04-21 13:00 | -25.59077 | -52.29846 | 34735 ft | 473 kts | 92° |
| 2026-04-21 13:01 | -25.59047 | -52.26208 | 34972 ft | 471 kts | 91° |
| 2026-04-21 13:01 | -25.59006 | -52.22576 | 35111 ft | 473 kts | 92° |
| 2026-04-21 13:01 | -25.58982 | -52.18910 | 35270 ft | 478 kts | 92° |
| 2026-04-21 13:01 | -25.58973 | -52.15231 | 35540 ft | 477 kts | 92° |
| 2026-04-21 13:02 | -25.58964 | -52.11561 | 35753 ft | 476 kts | 92° |
| 2026-04-21 13:02 | -25.58954 | -52.00440 | 36201 ft | 481 kts | 92° |
| 2026-04-21 13:03 | -25.58924 | -51.96766 | 36365 ft | 486 kts | 92° |
| 2026-04-21 13:03 | -25.58920 | -51.93013 | 36622 ft | 487 kts | 92° |
| 2026-04-21 13:03 | -25.58888 | -51.89260 | 36897 ft | 486 kts | 92° |
| 2026-04-21 13:03 | -25.58843 | -51.85504 | 37073 ft | 489 kts | 92° |
| 2026-04-21 13:04 | -25.58814 | -51.77974 | 37147 ft | 489 kts | 92° |
| 2026-04-21 13:04 | -25.58779 | -51.70333 | 37139 ft | 502 kts | 92° |
| 2026-04-21 13:05 | -25.58705 | -51.62514 | 37129 ft | 515 kts | 91° |
| 2026-04-21 13:05 | -25.58619 | -51.54528 | 37165 ft | 522 kts | 92° |
| 2026-04-21 13:06 | -25.58588 | -51.46479 | 37151 ft | 525 kts | 92° |
| 2026-04-21 13:06 | -25.58463 | -51.38395 | 37156 ft | 525 kts | 92° |
| 2026-04-21 13:07 | -25.58451 | -51.30278 | 37164 ft | 526 kts | 94° |
| 2026-04-21 13:07 | -25.58362 | -51.22240 | 37164 ft | 519 kts | 92° |
| 2026-04-21 13:08 | -25.58232 | -51.14265 | 37149 ft | 517 kts | 92° |
| 2026-04-21 13:08 | -25.58164 | -51.06283 | 37179 ft | 519 kts | 92° |
| 2026-04-21 13:09 | -25.58041 | -50.98295 | 37166 ft | 522 kts | 91° |
| 2026-04-21 13:09 | -25.57907 | -50.90234 | 37167 ft | 524 kts | 92° |
| 2026-04-21 13:10 | -25.57852 | -50.82212 | 37158 ft | 520 kts | 92° |
| 2026-04-21 13:10 | -25.57748 | -50.74203 | 37190 ft | 521 kts | 92° |
| 2026-04-21 13:11 | -25.57744 | -50.66214 | 37161 ft | 518 kts | 92° |
| 2026-04-21 13:11 | -25.57585 | -50.58237 | 37169 ft | 517 kts | 91° |
| 2026-04-21 13:12 | -25.57421 | -50.50286 | 37167 ft | 515 kts | 91° |
| 2026-04-21 13:12 | -25.57263 | -50.42346 | 37185 ft | 515 kts | 91° |
| 2026-04-21 13:13 | -25.57163 | -50.34419 | 37184 ft | 515 kts | 92° |
| 2026-04-21 13:13 | -25.57051 | -50.26478 | 37182 ft | 517 kts | 91° |
| 2026-04-21 13:14 | -25.56891 | -50.18599 | 37174 ft | 515 kts | 91° |
| 2026-04-21 13:14 | -25.56767 | -50.10658 | 37199 ft | 516 kts | 93° |
| 2026-04-21 13:15 | -25.56616 | -50.02707 | 37188 ft | 517 kts | 90° |
| 2026-04-21 13:15 | -25.56208 | -49.94725 | 37180 ft | 519 kts | 90° |
| 2026-04-21 13:16 | -25.55835 | -49.86739 | 37185 ft | 520 kts | 90° |
| 2026-04-21 13:16 | -25.55497 | -49.78752 | 37170 ft | 519 kts | 90° |
| 2026-04-21 13:17 | -25.55163 | -49.70774 | 37188 ft | 519 kts | 90° |
| 2026-04-21 13:17 | -25.54803 | -49.62816 | 37167 ft | 517 kts | 90° |
| 2026-04-21 13:18 | -25.54453 | -49.54866 | 37167 ft | 518 kts | 91° |
| 2026-04-21 13:18 | -25.54095 | -49.46897 | 37194 ft | 520 kts | 89° |
| 2026-04-21 13:19 | -25.53793 | -49.38986 | 37189 ft | 516 kts | 91° |
| 2026-04-21 13:19 | -25.53595 | -49.31027 | 37236 ft | 518 kts | 91° |
| 2026-04-21 13:20 | -25.53401 | -49.23061 | 37243 ft | 516 kts | 91° |
| 2026-04-21 13:20 | -25.53016 | -49.15141 | 37228 ft | 516 kts | 83° |
| 2026-04-21 13:21 | -25.51623 | -49.07324 | 37236 ft | 519 kts | 80° |
| 2026-04-21 13:21 | -25.50247 | -48.99481 | 37221 ft | 519 kts | 81° |
| 2026-04-21 13:22 | -25.48903 | -48.91615 | 37192 ft | 518 kts | 82° |
| 2026-04-21 13:22 | -25.47606 | -48.83811 | 37185 ft | 515 kts | 81° |
| 2026-04-21 13:23 | -25.46255 | -48.76006 | 37160 ft | 518 kts | 80° |
| 2026-04-21 13:23 | -25.44896 | -48.68147 | 37144 ft | 522 kts | 81° |
| 2026-04-21 13:24 | -25.43515 | -48.60249 | 37155 ft | 523 kts | 81° |
| 2026-04-21 13:24 | -25.42123 | -48.52386 | 37140 ft | 520 kts | 81° |
| 2026-04-21 13:25 | -25.40760 | -48.44558 | 37152 ft | 516 kts | 81° |
| 2026-04-21 13:25 | -25.39350 | -48.36760 | 37140 ft | 518 kts | 80° |
| 2026-04-21 13:26 | -25.38012 | -48.28961 | 37160 ft | 517 kts | 81° |
| 2026-04-21 13:26 | -25.36656 | -48.21134 | 37144 ft | 519 kts | 79° |
| 2026-04-21 13:27 | -25.35237 | -48.13358 | 37140 ft | 519 kts | 80° |
| 2026-04-21 13:27 | -25.33908 | -48.05519 | 37132 ft | 519 kts | 81° |
| 2026-04-21 13:28 | -25.32456 | -47.97715 | 37136 ft | 517 kts | 80° |
| 2026-04-21 13:28 | -25.31098 | -47.89940 | 37136 ft | 513 kts | 82° |
| 2026-04-21 13:29 | -25.29787 | -47.82169 | 37123 ft | 517 kts | 81° |
| 2026-04-21 13:29 | -25.28379 | -47.74408 | 37126 ft | 513 kts | 79° |
| 2026-04-21 13:30 | -25.26930 | -47.66699 | 37132 ft | 512 kts | 81° |
| 2026-04-21 13:30 | -25.25543 | -47.58930 | 36476 ft | 520 kts | 79° |
| 2026-04-21 13:31 | -25.24817 | -47.55039 | 35948 ft | 515 kts | 79° |
| 2026-04-21 13:31 | -25.24092 | -47.51170 | 35519 ft | 511 kts | 78° |
| 2026-04-21 13:31 | -25.23064 | -47.47437 | 35028 ft | 507 kts | 66° |
| 2026-04-21 13:31 | -25.21498 | -47.43960 | 34681 ft | 503 kts | 60° |
| 2026-04-21 13:32 | -25.19698 | -47.40751 | 34402 ft | 493 kts | 53° |
| 2026-04-21 13:32 | -25.17605 | -47.37768 | 33976 ft | 490 kts | 49° |
| 2026-04-21 13:32 | -25.15417 | -47.34916 | 33531 ft | 485 kts | 47° |
| 2026-04-21 13:32 | -25.13219 | -47.32125 | 33070 ft | 479 kts | 47° |
| 2026-04-21 13:33 | -25.11042 | -47.29356 | 32626 ft | 474 kts | 47° |
| 2026-04-21 13:33 | -25.08902 | -47.26602 | 32197 ft | 472 kts | 48° |
| 2026-04-21 13:33 | -25.06806 | -47.23848 | 31771 ft | 465 kts | 48° |
| 2026-04-21 13:33 | -25.04743 | -47.21121 | 31354 ft | 461 kts | 49° |
| 2026-04-21 13:34 | -25.03385 | -47.19336 | 31077 ft | 457 kts | 48° |
| 2026-04-21 13:34 | -25.00662 | -47.15741 | 30517 ft | 456 kts | 49° |
| 2026-04-21 13:34 | -24.99319 | -47.13966 | 30254 ft | 456 kts | 48° |
| 2026-04-21 13:34 | -24.97302 | -47.11298 | 29762 ft | 450 kts | 49° |
| 2026-04-21 13:35 | -24.95305 | -47.08650 | 29308 ft | 449 kts | 49° |
| 2026-04-21 13:35 | -24.93319 | -47.06014 | 28846 ft | 445 kts | 49° |
| 2026-04-21 13:35 | -24.91347 | -47.03400 | 28420 ft | 441 kts | 49° |
| 2026-04-21 13:35 | -24.89391 | -47.00817 | 27985 ft | 439 kts | 48° |
| 2026-04-21 13:36 | -24.87404 | -46.98199 | 27579 ft | 454 kts | 49° |
| 2026-04-21 13:36 | -24.85311 | -46.95493 | 27138 ft | 474 kts | 48° |
| 2026-04-21 13:36 | -24.83158 | -46.92683 | 26665 ft | 482 kts | 49° |
| 2026-04-21 13:36 | -24.81024 | -46.89837 | 26162 ft | 480 kts | 49° |
| 2026-04-21 13:37 | -24.78891 | -46.87026 | 25694 ft | 476 kts | 49° |
| 2026-04-21 13:37 | -24.76783 | -46.84248 | 25229 ft | 471 kts | 49° |
| 2026-04-21 13:37 | -24.74689 | -46.81491 | 24768 ft | 467 kts | 49° |
| 2026-04-21 13:37 | -24.72614 | -46.78762 | 24283 ft | 464 kts | 49° |
| 2026-04-21 13:38 | -24.70551 | -46.76054 | 23810 ft | 460 kts | 49° |
| 2026-04-21 13:38 | -24.68526 | -46.73398 | 23287 ft | 457 kts | 49° |
| 2026-04-21 13:38 | -24.66494 | -46.70736 | 22794 ft | 452 kts | 49° |
| 2026-04-21 13:38 | -24.64480 | -46.68101 | 22323 ft | 448 kts | 49° |
| 2026-04-21 13:39 | -24.62444 | -46.65529 | 21860 ft | 443 kts | 43° |
| 2026-04-21 13:39 | -24.59939 | -46.63624 | 21424 ft | 437 kts | 24° |
| 2026-04-21 13:39 | -24.57084 | -46.62585 | 21067 ft | 430 kts | 8° |
| 2026-04-21 13:39 | -24.54117 | -46.62363 | 20664 ft | 427 kts | 358° |
| 2026-04-21 13:40 | -24.51148 | -46.62416 | 20214 ft | 427 kts | 357° |
| 2026-04-21 13:40 | -24.48179 | -46.62493 | 19750 ft | 427 kts | 358° |
| 2026-04-21 13:40 | -24.44193 | -46.62552 | 19132 ft | 429 kts | 358° |
| 2026-04-21 13:40 | -24.42217 | -46.62563 | 18820 ft | 428 kts | 359° |
| 2026-04-21 13:41 | -24.39240 | -46.62569 | 18345 ft | 427 kts | 359° |
| 2026-04-21 13:41 | -24.36286 | -46.62569 | 17793 ft | 422 kts | 359° |
| 2026-04-21 13:41 | -24.33375 | -46.62568 | 17328 ft | 415 kts | 359° |
| 2026-04-21 13:41 | -24.30504 | -46.62568 | 16881 ft | 409 kts | 359° |
| 2026-04-21 13:42 | -24.27670 | -46.62569 | 16442 ft | 405 kts | 360° |
| 2026-04-21 13:42 | -24.24865 | -46.62571 | 16005 ft | 401 kts | 0° |
| 2026-04-21 13:42 | -24.22065 | -46.62573 | 15581 ft | 401 kts | 0° |
| 2026-04-21 13:42 | -24.19289 | -46.62574 | 15135 ft | 396 kts | 0° |
| 2026-04-21 13:43 | -24.16551 | -46.62576 | 14709 ft | 391 kts | 0° |
| 2026-04-21 13:43 | -24.13853 | -46.62580 | 14287 ft | 386 kts | 1° |
| 2026-04-21 13:43 | -24.11177 | -46.62582 | 13851 ft | 382 kts | 1° |
| 2026-04-21 13:43 | -24.08530 | -46.62583 | 13416 ft | 378 kts | 1° |
| 2026-04-21 13:44 | -24.05939 | -46.62585 | 12980 ft | 366 kts | 1° |
| 2026-04-21 13:44 | -24.03463 | -46.62585 | 12585 ft | 355 kts | 1° |
| 2026-04-21 13:44 | -24.01032 | -46.62588 | 12203 ft | 345 kts | 1° |
| 2026-04-21 13:44 | -23.98666 | -46.62590 | 11824 ft | 335 kts | 1° |
| 2026-04-21 13:45 | -23.96360 | -46.62591 | 11470 ft | 327 kts | 1° |
| 2026-04-21 13:45 | -23.94115 | -46.62593 | 11122 ft | 319 kts | 1° |
| 2026-04-21 13:45 | -23.91903 | -46.62594 | 10767 ft | 318 kts | 1° |
| 2026-04-21 13:45 | -23.89709 | -46.62595 | 10608 ft | 311 kts | 1° |
| 2026-04-21 13:46 | -23.87570 | -46.62596 | 10472 ft | 303 kts | 1° |
| 2026-04-21 13:46 | -23.85502 | -46.62849 | 10320 ft | 298 kts | 341° |
| 2026-04-21 13:46 | -23.83690 | -46.63872 | 10220 ft | 290 kts | 328° |
| 2026-04-21 13:46 | -23.81999 | -46.65070 | 9934 ft | 290 kts | 327° |
| 2026-04-21 13:47 | -23.80318 | -46.66268 | 9650 ft | 288 kts | 327° |
| 2026-04-21 13:47 | -23.78636 | -46.67452 | 9369 ft | 286 kts | 328° |
| 2026-04-21 13:47 | -23.76966 | -46.68623 | 9255 ft | 284 kts | 328° |
| 2026-04-21 13:47 | -23.75304 | -46.69779 | 9232 ft | 282 kts | 328° |
| 2026-04-21 13:48 | -23.73668 | -46.70915 | 9242 ft | 284 kts | 328° |
| 2026-04-21 13:48 | -23.71987 | -46.72082 | 9237 ft | 289 kts | 328° |
| 2026-04-21 13:48 | -23.70260 | -46.73279 | 8878 ft | 297 kts | 328° |
| 2026-04-21 13:48 | -23.68512 | -46.74491 | 8426 ft | 299 kts | 328° |
| 2026-04-21 13:49 | -23.66764 | -46.75705 | 8029 ft | 297 kts | 328° |
| 2026-04-21 13:49 | -23.65035 | -46.76903 | 7691 ft | 292 kts | 329° |
| 2026-04-21 13:49 | -23.63335 | -46.78080 | 7354 ft | 287 kts | 329° |
| 2026-04-21 13:49 | -23.61662 | -46.79240 | 7038 ft | 283 kts | 329° |
| 2026-04-21 13:50 | -23.60015 | -46.80378 | 6745 ft | 275 kts | 329° |
| 2026-04-21 13:50 | -23.58299 | -46.81129 | 6391 ft | 260 kts | 356° |
| 2026-04-21 13:50 | -23.56585 | -46.80892 | 6096 ft | 241 kts | 24° |
| 2026-04-21 13:50 | -23.55168 | -46.80014 | 5842 ft | 229 kts | 42° |
| 2026-04-21 13:51 | -23.54136 | -46.78758 | 5619 ft | 218 kts | 57° |
| 2026-04-21 13:51 | -23.53320 | -46.77403 | 5368 ft | 211 kts | 59° |
| 2026-04-21 13:51 | -23.52547 | -46.76073 | 5142 ft | 204 kts | 60° |
| 2026-04-21 13:51 | -23.51985 | -46.74694 | 4912 ft | 195 kts | 87° |
| 2026-04-21 13:52 | -23.52368 | -46.73385 | 4805 ft | 177 kts | 127° |
| 2026-04-21 13:52 | -23.53219 | -46.72430 | 4630 ft | 174 kts | 137° |
| 2026-04-21 13:52 | -23.54164 | -46.71598 | 4387 ft | 174 kts | 140° |
| 2026-04-21 13:52 | -23.55122 | -46.70867 | 4181 ft | 166 kts | 144° |
| 2026-04-21 13:53 | -23.56089 | -46.70195 | 3976 ft | 164 kts | 145° |
| 2026-04-21 13:53 | -23.57041 | -46.69536 | 3789 ft | 157 kts | 146° |
| 2026-04-21 13:53 | -23.57924 | -46.68932 | 3632 ft | 145 kts | 146° |
| 2026-04-21 13:53 | -23.58758 | -46.68344 | 3438 ft | 142 kts | 145° |
| 2026-04-21 13:54 | -23.59583 | -46.67773 | 3204 ft | 140 kts | 147° |
| 2026-04-21 13:54 | -23.60415 | -46.67201 | 3024 ft | 142 kts | 147° |
| 2026-04-21 13:54 | -23.61245 | -46.66633 | 2828 ft | 139 kts | 146° |
| 2026-04-21 13:54 | -23.62046 | -46.66076 | 2640 ft | 135 kts | 146° |
| 2026-04-21 13:55 | -23.62746 | -46.65592 | 2606 ft | 75 kts | 148° |
| 2026-04-21 13:55 | -23.63031 | -46.65396 | 2609 ft | 27 kts | 148° |
| 2026-04-21 13:55 | -23.63138 | -46.65376 | 2607 ft | 8 kts | 191° |
| 2026-04-21 13:55 | -23.63184 | -46.65394 | 2603 ft | 1 kts | 225° |
| 2026-04-21 13:56 | -23.63186 | -46.65416 | 2602 ft | 5 kts | 285° |
| 2026-04-21 13:56 | -23.63148 | -46.65456 | 2601 ft | 10 kts | 327° |
| 2026-04-21 13:56 | -23.63085 | -46.65501 | 2601 ft | 11 kts | 328° |
| 2026-04-21 13:56 | -23.63013 | -46.65522 | 2602 ft | 11 kts | 351° |
| 2026-04-21 13:57 | -23.62948 | -46.65559 | 2602 ft | 11 kts | 326° |
| 2026-04-21 13:57 | -23.62886 | -46.65603 | 2602 ft | 11 kts | 327° |
| 2026-04-21 13:57 | -23.62825 | -46.65645 | 2602 ft | 10 kts | 328° |
| 2026-04-21 13:57 | -23.62762 | -46.65688 | 2601 ft | 11 kts | 327° |
| 2026-04-21 13:58 | -23.62694 | -46.65735 | 2601 ft | 12 kts | 327° |
| 2026-04-21 13:58 | -23.62652 | -46.65793 | 2600 ft | 9 kts | 250° |
| 2026-04-21 13:58 | -23.62666 | -46.65810 | 2600 ft | 3 kts | 227° |
| 2026-04-21 13:58 | -23.62683 | -46.65837 | 2600 ft | 5 kts | 236° |
| 2026-04-21 13:59 | -23.62687 | -46.65843 | 2600 ft | 0 kts | 236° |